sensor_id;sensor_type;location;lat;lon;timestamp;P1;durP1;ratioP1;P2;durP2;ratioP2
71462;SDS011;59266;52.608;13.260;2023-04-19T00:01:26;7.80;;;2.55;;
71462;SDS011;59266;52.608;13.260;2023-04-19T00:03:53;7.43;;;2.25;;
71462;SDS011;59266;52.608;13.260;2023-04-19T00:06:21;8.77;;;2.75;;
71462;SDS011;59266;52.608;13.260;2023-04-19T00:08:48;8.95;;;2.72;;
71462;SDS011;59266;52.608;13.260;2023-04-19T00:11:15;7.72;;;2.40;;
71462;SDS011;59266;52.608;13.260;2023-04-19T00:13:41;10.15;;;2.50;;
71462;SDS011;59266;52.608;13.260;2023-04-19T00:16:08;6.70;;;2.63;;
71462;SDS011;59266;52.608;13.260;2023-04-19T00:18:35;9.70;;;2.75;;
71462;SDS011;59266;52.608;13.260;2023-04-19T00:21:04;6.47;;;2.10;;
71462;SDS011;59266;52.608;13.260;2023-04-19T00:23:31;7.68;;;2.55;;
71462;SDS011;59266;52.608;13.260;2023-04-19T00:25:57;9.88;;;2.75;;
71462;SDS011;59266;52.608;13.260;2023-04-19T00:28:24;7.45;;;2.30;;
71462;SDS011;59266;52.608;13.260;2023-04-19T00:30:51;7.78;;;2.53;;
71462;SDS011;59266;52.608;13.260;2023-04-19T00:33:18;6.28;;;2.13;;
71462;SDS011;59266;52.608;13.260;2023-04-19T00:36:36;9.27;;;2.15;;
71462;SDS011;59266;52.608;13.260;2023-04-19T00:39:26;7.38;;;2.22;;
71462;SDS011;59266;52.608;13.260;2023-04-19T00:41:53;6.80;;;2.70;;
71462;SDS011;59266;52.608;13.260;2023-04-19T00:44:20;7.30;;;2.15;;
71462;SDS011;59266;52.608;13.260;2023-04-19T00:46:51;6.95;;;2.10;;
71462;SDS011;59266;52.608;13.260;2023-04-19T00:49:19;7.88;;;2.55;;
71462;SDS011;59266;52.608;13.260;2023-04-19T00:51:46;6.60;;;2.20;;
71462;SDS011;59266;52.608;13.260;2023-04-19T00:54:13;10.43;;;2.50;;
71462;SDS011;59266;52.608;13.260;2023-04-19T00:56:41;9.70;;;2.42;;
71462;SDS011;59266;52.608;13.260;2023-04-19T00:59:08;8.48;;;2.08;;
71462;SDS011;59266;52.608;13.260;2023-04-19T01:01:35;7.22;;;2.08;;
71462;SDS011;59266;52.608;13.260;2023-04-19T01:04:07;5.90;;;2.20;;
71462;SDS011;59266;52.608;13.260;2023-04-19T01:06:34;10.88;;;2.40;;
71462;SDS011;59266;52.608;13.260;2023-04-19T01:09:01;6.25;;;2.03;;
71462;SDS011;59266;52.608;13.260;2023-04-19T01:11:28;8.38;;;2.63;;
71462;SDS011;59266;52.608;13.260;2023-04-19T01:13:55;7.53;;;2.08;;
71462;SDS011;59266;52.608;13.260;2023-04-19T01:16:27;8.25;;;2.42;;
71462;SDS011;59266;52.608;13.260;2023-04-19T01:18:53;7.38;;;2.55;;
71462;SDS011;59266;52.608;13.260;2023-04-19T01:21:20;6.20;;;1.95;;
71462;SDS011;59266;52.608;13.260;2023-04-19T01:23:47;6.88;;;2.22;;
71462;SDS011;59266;52.608;13.260;2023-04-19T01:26:14;6.03;;;2.20;;
71462;SDS011;59266;52.608;13.260;2023-04-19T01:28:41;6.50;;;2.10;;
71462;SDS011;59266;52.608;13.260;2023-04-19T01:31:07;8.25;;;2.33;;
71462;SDS011;59266;52.608;13.260;2023-04-19T01:33:34;5.70;;;2.13;;
71462;SDS011;59266;52.608;13.260;2023-04-19T01:36:00;8.48;;;2.30;;
71462;SDS011;59266;52.608;13.260;2023-04-19T01:38:27;7.40;;;2.33;;
71462;SDS011;59266;52.608;13.260;2023-04-19T01:40:53;10.00;;;2.88;;
71462;SDS011;59266;52.608;13.260;2023-04-19T01:43:22;9.30;;;2.25;;
71462;SDS011;59266;52.608;13.260;2023-04-19T01:45:49;5.97;;;1.83;;
71462;SDS011;59266;52.608;13.260;2023-04-19T01:48:16;9.15;;;2.53;;
71462;SDS011;59266;52.608;13.260;2023-04-19T01:50:42;6.90;;;2.10;;
71462;SDS011;59266;52.608;13.260;2023-04-19T01:53:08;7.35;;;2.63;;
71462;SDS011;59266;52.608;13.260;2023-04-19T01:55:38;7.88;;;2.33;;
71462;SDS011;59266;52.608;13.260;2023-04-19T01:58:04;8.73;;;2.03;;
71462;SDS011;59266;52.608;13.260;2023-04-19T02:00:34;9.05;;;2.67;;
71462;SDS011;59266;52.608;13.260;2023-04-19T02:03:01;7.55;;;2.40;;
71462;SDS011;59266;52.608;13.260;2023-04-19T02:05:27;6.82;;;2.22;;
71462;SDS011;59266;52.608;13.260;2023-04-19T02:07:54;6.45;;;1.98;;
71462;SDS011;59266;52.608;13.260;2023-04-19T02:10:21;9.55;;;2.40;;
71462;SDS011;59266;52.608;13.260;2023-04-19T02:12:47;9.95;;;2.45;;
71462;SDS011;59266;52.608;13.260;2023-04-19T02:15:14;7.35;;;2.15;;
71462;SDS011;59266;52.608;13.260;2023-04-19T02:17:40;7.88;;;2.28;;
71462;SDS011;59266;52.608;13.260;2023-04-19T02:20:07;7.68;;;2.10;;
71462;SDS011;59266;52.608;13.260;2023-04-19T02:22:34;8.23;;;2.33;;
71462;SDS011;59266;52.608;13.260;2023-04-19T02:25:00;5.72;;;2.10;;
71462;SDS011;59266;52.608;13.260;2023-04-19T02:27:27;7.55;;;2.17;;
71462;SDS011;59266;52.608;13.260;2023-04-19T02:29:54;6.75;;;2.03;;
71462;SDS011;59266;52.608;13.260;2023-04-19T02:32:21;7.38;;;2.03;;
71462;SDS011;59266;52.608;13.260;2023-04-19T02:34:48;6.18;;;1.92;;
71462;SDS011;59266;52.608;13.260;2023-04-19T02:37:14;5.30;;;2.00;;
71462;SDS011;59266;52.608;13.260;2023-04-19T02:39:41;6.18;;;2.00;;
71462;SDS011;59266;52.608;13.260;2023-04-19T02:42:08;7.45;;;2.20;;
71462;SDS011;59266;52.608;13.260;2023-04-19T02:44:34;7.50;;;2.35;;
71462;SDS011;59266;52.608;13.260;2023-04-19T02:47:01;7.90;;;2.30;;
71462;SDS011;59266;52.608;13.260;2023-04-19T02:49:29;6.13;;;1.98;;
71462;SDS011;59266;52.608;13.260;2023-04-19T02:51:58;9.48;;;2.13;;
71462;SDS011;59266;52.608;13.260;2023-04-19T02:54:24;7.07;;;1.98;;
71462;SDS011;59266;52.608;13.260;2023-04-19T02:56:51;6.47;;;2.28;;
71462;SDS011;59266;52.608;13.260;2023-04-19T02:59:20;8.00;;;2.05;;
71462;SDS011;59266;52.608;13.260;2023-04-19T03:01:46;7.05;;;1.75;;
71462;SDS011;59266;52.608;13.260;2023-04-19T03:04:16;5.80;;;2.58;;
71462;SDS011;59266;52.608;13.260;2023-04-19T03:06:46;6.20;;;1.70;;
71462;SDS011;59266;52.608;13.260;2023-04-19T03:09:15;6.28;;;1.98;;
71462;SDS011;59266;52.608;13.260;2023-04-19T03:14:27;4.82;;;1.67;;
71462;SDS011;59266;52.608;13.260;2023-04-19T03:19:45;9.25;;;1.90;;
71462;SDS011;59266;52.608;13.260;2023-04-19T03:22:14;7.10;;;2.15;;
71462;SDS011;59266;52.608;13.260;2023-04-19T03:25:00;7.63;;;2.08;;
71462;SDS011;59266;52.608;13.260;2023-04-19T03:28:02;7.90;;;2.42;;
71462;SDS011;59266;52.608;13.260;2023-04-19T03:30:30;8.20;;;1.92;;
71462;SDS011;59266;52.608;13.260;2023-04-19T03:32:56;8.48;;;2.30;;
71462;SDS011;59266;52.608;13.260;2023-04-19T03:35:25;7.40;;;2.28;;
71462;SDS011;59266;52.608;13.260;2023-04-19T03:37:54;9.07;;;2.58;;
71462;SDS011;59266;52.608;13.260;2023-04-19T03:40:21;7.43;;;1.88;;
71462;SDS011;59266;52.608;13.260;2023-04-19T03:42:47;6.43;;;2.20;;
71462;SDS011;59266;52.608;13.260;2023-04-19T03:45:23;6.95;;;1.92;;
71462;SDS011;59266;52.608;13.260;2023-04-19T03:47:50;6.13;;;1.80;;
71462;SDS011;59266;52.608;13.260;2023-04-19T03:50:17;7.43;;;2.60;;
71462;SDS011;59266;52.608;13.260;2023-04-19T03:52:44;7.25;;;2.30;;
71462;SDS011;59266;52.608;13.260;2023-04-19T03:55:56;12.02;;;2.15;;
71462;SDS011;59266;52.608;13.260;2023-04-19T03:59:00;9.57;;;2.00;;
71462;SDS011;59266;52.608;13.260;2023-04-19T04:01:27;7.22;;;2.10;;
71462;SDS011;59266;52.608;13.260;2023-04-19T04:03:53;6.60;;;2.30;;
71462;SDS011;59266;52.608;13.260;2023-04-19T04:06:20;10.05;;;2.17;;
71462;SDS011;59266;52.608;13.260;2023-04-19T04:08:47;11.75;;;2.83;;
71462;SDS011;59266;52.608;13.260;2023-04-19T04:11:13;8.93;;;2.20;;
71462;SDS011;59266;52.608;13.260;2023-04-19T04:13:40;9.68;;;2.40;;
71462;SDS011;59266;52.608;13.260;2023-04-19T04:16:07;6.20;;;2.10;;
71462;SDS011;59266;52.608;13.260;2023-04-19T04:18:34;8.77;;;2.10;;
71462;SDS011;59266;52.608;13.260;2023-04-19T04:21:02;8.20;;;2.25;;
71462;SDS011;59266;52.608;13.260;2023-04-19T04:23:29;9.77;;;2.50;;
71462;SDS011;59266;52.608;13.260;2023-04-19T04:26:14;8.60;;;2.08;;
71462;SDS011;59266;52.608;13.260;2023-04-19T04:28:41;10.63;;;2.50;;
71462;SDS011;59266;52.608;13.260;2023-04-19T04:31:07;7.88;;;2.08;;
71462;SDS011;59266;52.608;13.260;2023-04-19T04:33:35;9.98;;;2.53;;
71462;SDS011;59266;52.608;13.260;2023-04-19T04:36:04;9.60;;;2.13;;
71462;SDS011;59266;52.608;13.260;2023-04-19T04:38:35;9.20;;;2.50;;
71462;SDS011;59266;52.608;13.260;2023-04-19T04:41:02;9.77;;;2.55;;
71462;SDS011;59266;52.608;13.260;2023-04-19T04:43:28;7.78;;;2.45;;
71462;SDS011;59266;52.608;13.260;2023-04-19T04:45:55;8.75;;;2.55;;
71462;SDS011;59266;52.608;13.260;2023-04-19T04:48:26;8.68;;;2.40;;
71462;SDS011;59266;52.608;13.260;2023-04-19T04:50:53;7.97;;;2.70;;
71462;SDS011;59266;52.608;13.260;2023-04-19T04:53:20;9.10;;;2.30;;
71462;SDS011;59266;52.608;13.260;2023-04-19T04:55:47;7.90;;;2.20;;
71462;SDS011;59266;52.608;13.260;2023-04-19T04:58:14;8.77;;;2.03;;
71462;SDS011;59266;52.608;13.260;2023-04-19T05:00:41;8.18;;;2.75;;
71462;SDS011;59266;52.608;13.260;2023-04-19T05:03:08;8.80;;;2.40;;
71462;SDS011;59266;52.608;13.260;2023-04-19T05:05:35;9.23;;;2.28;;
71462;SDS011;59266;52.608;13.260;2023-04-19T05:08:02;7.07;;;2.05;;
71462;SDS011;59266;52.608;13.260;2023-04-19T05:13:26;7.07;;;2.15;;
71462;SDS011;59266;52.608;13.260;2023-04-19T05:15:55;7.75;;;2.15;;
71462;SDS011;59266;52.608;13.260;2023-04-19T05:18:22;6.88;;;2.30;;
71462;SDS011;59266;52.608;13.260;2023-04-19T05:20:49;6.22;;;2.10;;
71462;SDS011;59266;52.608;13.260;2023-04-19T05:23:16;7.25;;;1.88;;
71462;SDS011;59266;52.608;13.260;2023-04-19T05:25:43;7.72;;;1.85;;
71462;SDS011;59266;52.608;13.260;2023-04-19T05:28:14;7.35;;;2.25;;
71462;SDS011;59266;52.608;13.260;2023-04-19T05:30:40;5.70;;;1.80;;
71462;SDS011;59266;52.608;13.260;2023-04-19T05:33:07;8.85;;;1.90;;
71462;SDS011;59266;52.608;13.260;2023-04-19T05:35:33;6.88;;;1.85;;
71462;SDS011;59266;52.608;13.260;2023-04-19T05:38:00;7.90;;;1.98;;
71462;SDS011;59266;52.608;13.260;2023-04-19T05:40:26;9.18;;;2.00;;
71462;SDS011;59266;52.608;13.260;2023-04-19T05:42:54;5.55;;;1.77;;
71462;SDS011;59266;52.608;13.260;2023-04-19T05:45:21;5.40;;;1.95;;
71462;SDS011;59266;52.608;13.260;2023-04-19T05:47:47;8.55;;;1.95;;
71462;SDS011;59266;52.608;13.260;2023-04-19T05:50:14;8.95;;;1.73;;
71462;SDS011;59266;52.608;13.260;2023-04-19T05:52:43;9.50;;;2.00;;
71462;SDS011;59266;52.608;13.260;2023-04-19T05:55:09;5.65;;;1.55;;
71462;SDS011;59266;52.608;13.260;2023-04-19T05:57:37;6.97;;;2.00;;
71462;SDS011;59266;52.608;13.260;2023-04-19T06:00:10;7.38;;;1.52;;
71462;SDS011;59266;52.608;13.260;2023-04-19T06:02:37;10.60;;;1.80;;
71462;SDS011;59266;52.608;13.260;2023-04-19T06:05:04;5.68;;;1.73;;
71462;SDS011;59266;52.608;13.260;2023-04-19T06:07:35;7.25;;;1.85;;
71462;SDS011;59266;52.608;13.260;2023-04-19T06:10:08;7.20;;;2.00;;
71462;SDS011;59266;52.608;13.260;2023-04-19T06:12:35;4.25;;;1.30;;
71462;SDS011;59266;52.608;13.260;2023-04-19T06:15:02;5.78;;;1.40;;
71462;SDS011;59266;52.608;13.260;2023-04-19T06:17:29;4.68;;;1.23;;
71462;SDS011;59266;52.608;13.260;2023-04-19T06:19:57;6.18;;;1.70;;
71462;SDS011;59266;52.608;13.260;2023-04-19T06:22:25;7.28;;;1.55;;
71462;SDS011;59266;52.608;13.260;2023-04-19T06:24:53;4.68;;;1.42;;
71462;SDS011;59266;52.608;13.260;2023-04-19T06:27:20;4.65;;;1.50;;
71462;SDS011;59266;52.608;13.260;2023-04-19T06:29:49;3.80;;;1.20;;
71462;SDS011;59266;52.608;13.260;2023-04-19T06:32:17;5.90;;;1.40;;
71462;SDS011;59266;52.608;13.260;2023-04-19T06:34:43;4.82;;;1.40;;
71462;SDS011;59266;52.608;13.260;2023-04-19T06:37:10;6.00;;;1.48;;
71462;SDS011;59266;52.608;13.260;2023-04-19T06:39:39;6.32;;;1.38;;
71462;SDS011;59266;52.608;13.260;2023-04-19T06:42:05;6.57;;;1.42;;
71462;SDS011;59266;52.608;13.260;2023-04-19T06:44:32;5.45;;;1.50;;
71462;SDS011;59266;52.608;13.260;2023-04-19T06:46:58;4.22;;;1.30;;
71462;SDS011;59266;52.608;13.260;2023-04-19T06:49:25;6.40;;;1.48;;
71462;SDS011;59266;52.608;13.260;2023-04-19T06:51:52;6.07;;;1.58;;
71462;SDS011;59266;52.608;13.260;2023-04-19T06:54:19;6.10;;;1.42;;
71462;SDS011;59266;52.608;13.260;2023-04-19T06:56:46;5.70;;;1.50;;
71462;SDS011;59266;52.608;13.260;2023-04-19T06:59:17;5.25;;;1.50;;
71462;SDS011;59266;52.608;13.260;2023-04-19T07:01:50;5.07;;;1.70;;
71462;SDS011;59266;52.608;13.260;2023-04-19T07:04:17;3.17;;;1.15;;
71462;SDS011;59266;52.608;13.260;2023-04-19T07:06:47;9.55;;;1.90;;
71462;SDS011;59266;52.608;13.260;2023-04-19T07:09:15;6.50;;;1.42;;
71462;SDS011;59266;52.608;13.260;2023-04-19T07:11:42;5.80;;;1.42;;
71462;SDS011;59266;52.608;13.260;2023-04-19T07:14:11;5.45;;;1.50;;
71462;SDS011;59266;52.608;13.260;2023-04-19T07:16:38;5.30;;;1.80;;
71462;SDS011;59266;52.608;13.260;2023-04-19T07:21:35;6.95;;;1.80;;
71462;SDS011;59266;52.608;13.260;2023-04-19T07:24:05;6.72;;;1.52;;
71462;SDS011;59266;52.608;13.260;2023-04-19T07:26:32;5.43;;;1.55;;
71462;SDS011;59266;52.608;13.260;2023-04-19T07:29:05;7.22;;;1.70;;
71462;SDS011;59266;52.608;13.260;2023-04-19T07:31:35;6.03;;;1.40;;
71462;SDS011;59266;52.608;13.260;2023-04-19T07:34:02;5.30;;;1.67;;
71462;SDS011;59266;52.608;13.260;2023-04-19T07:36:28;5.80;;;1.80;;
71462;SDS011;59266;52.608;13.260;2023-04-19T07:38:57;6.45;;;1.80;;
71462;SDS011;59266;52.608;13.260;2023-04-19T07:41:27;5.90;;;1.85;;
71462;SDS011;59266;52.608;13.260;2023-04-19T07:43:54;5.68;;;1.63;;
71462;SDS011;59266;52.608;13.260;2023-04-19T07:46:20;6.15;;;1.90;;
71462;SDS011;59266;52.608;13.260;2023-04-19T07:48:47;7.22;;;1.88;;
71462;SDS011;59266;52.608;13.260;2023-04-19T07:51:15;6.15;;;1.80;;
71462;SDS011;59266;52.608;13.260;2023-04-19T07:53:43;6.78;;;1.70;;
71462;SDS011;59266;52.608;13.260;2023-04-19T07:56:12;5.60;;;1.80;;
71462;SDS011;59266;52.608;13.260;2023-04-19T07:58:39;6.55;;;1.80;;
71462;SDS011;59266;52.608;13.260;2023-04-19T08:01:07;8.27;;;1.90;;
71462;SDS011;59266;52.608;13.260;2023-04-19T08:03:33;5.35;;;1.55;;
71462;SDS011;59266;52.608;13.260;2023-04-19T08:06:02;7.40;;;1.83;;
71462;SDS011;59266;52.608;13.260;2023-04-19T08:08:30;5.78;;;1.90;;
71462;SDS011;59266;52.608;13.260;2023-04-19T08:10:59;7.90;;;2.00;;
71462;SDS011;59266;52.608;13.260;2023-04-19T08:13:28;6.28;;;1.92;;
71462;SDS011;59266;52.608;13.260;2023-04-19T08:15:55;6.88;;;1.80;;
71462;SDS011;59266;52.608;13.260;2023-04-19T08:18:24;7.53;;;2.20;;
71462;SDS011;59266;52.608;13.260;2023-04-19T08:20:58;6.80;;;1.88;;
71462;SDS011;59266;52.608;13.260;2023-04-19T08:23:24;6.13;;;1.80;;
71462;SDS011;59266;52.608;13.260;2023-04-19T08:26:06;6.55;;;2.20;;
71462;SDS011;59266;52.608;13.260;2023-04-19T08:28:36;7.13;;;1.90;;
71462;SDS011;59266;52.608;13.260;2023-04-19T08:31:07;6.25;;;1.80;;
71462;SDS011;59266;52.608;13.260;2023-04-19T08:33:34;5.28;;;1.80;;
71462;SDS011;59266;52.608;13.260;2023-04-19T08:36:01;8.10;;;2.28;;
71462;SDS011;59266;52.608;13.260;2023-04-19T08:38:27;7.40;;;2.10;;
71462;SDS011;59266;52.608;13.260;2023-04-19T08:40:55;6.78;;;1.70;;
71462;SDS011;59266;52.608;13.260;2023-04-19T08:43:23;5.63;;;1.98;;
71462;SDS011;59266;52.608;13.260;2023-04-19T08:45:51;5.35;;;1.92;;
71462;SDS011;59266;52.608;13.260;2023-04-19T08:48:19;5.95;;;2.08;;
71462;SDS011;59266;52.608;13.260;2023-04-19T08:50:47;4.93;;;1.83;;
71462;SDS011;59266;52.608;13.260;2023-04-19T08:55:58;6.47;;;2.13;;
71462;SDS011;59266;52.608;13.260;2023-04-19T08:58:42;8.95;;;2.30;;
71462;SDS011;59266;52.608;13.260;2023-04-19T09:01:29;9.05;;;2.00;;
71462;SDS011;59266;52.608;13.260;2023-04-19T09:04:04;5.68;;;2.03;;
71462;SDS011;59266;52.608;13.260;2023-04-19T09:06:52;6.00;;;2.00;;
71462;SDS011;59266;52.608;13.260;2023-04-19T09:09:20;6.28;;;1.90;;
71462;SDS011;59266;52.608;13.260;2023-04-19T09:11:49;8.95;;;2.75;;
71462;SDS011;59266;52.608;13.260;2023-04-19T09:14:17;7.80;;;2.22;;
71462;SDS011;59266;52.608;13.260;2023-04-19T09:16:46;6.93;;;2.13;;
71462;SDS011;59266;52.608;13.260;2023-04-19T09:19:25;7.57;;;2.00;;
71462;SDS011;59266;52.608;13.260;2023-04-19T09:21:53;6.95;;;2.05;;
71462;SDS011;59266;52.608;13.260;2023-04-19T09:24:36;5.57;;;1.88;;
71462;SDS011;59266;52.608;13.260;2023-04-19T09:27:28;9.32;;;2.40;;
71462;SDS011;59266;52.608;13.260;2023-04-19T09:29:59;8.02;;;2.30;;
71462;SDS011;59266;52.608;13.260;2023-04-19T09:32:27;7.43;;;2.03;;
71462;SDS011;59266;52.608;13.260;2023-04-19T09:34:55;6.68;;;2.13;;
71462;SDS011;59266;52.608;13.260;2023-04-19T09:37:23;7.60;;;2.08;;
71462;SDS011;59266;52.608;13.260;2023-04-19T09:39:55;5.43;;;2.05;;
71462;SDS011;59266;52.608;13.260;2023-04-19T09:42:42;9.43;;;2.30;;
71462;SDS011;59266;52.608;13.260;2023-04-19T09:45:16;6.25;;;2.10;;
71462;SDS011;59266;52.608;13.260;2023-04-19T09:47:52;8.30;;;2.30;;
71462;SDS011;59266;52.608;13.260;2023-04-19T09:50:27;6.72;;;2.25;;
71462;SDS011;59266;52.608;13.260;2023-04-19T09:52:56;6.68;;;1.95;;
71462;SDS011;59266;52.608;13.260;2023-04-19T09:55:24;9.15;;;2.10;;
71462;SDS011;59266;52.608;13.260;2023-04-19T09:58:06;7.05;;;2.33;;
71462;SDS011;59266;52.608;13.260;2023-04-19T10:00:35;6.78;;;2.63;;
71462;SDS011;59266;52.608;13.260;2023-04-19T10:03:14;7.05;;;2.33;;
71462;SDS011;59266;52.608;13.260;2023-04-19T10:05:45;11.32;;;2.60;;
71462;SDS011;59266;52.608;13.260;2023-04-19T10:08:21;8.45;;;2.95;;
71462;SDS011;59266;52.608;13.260;2023-04-19T10:11:10;6.93;;;2.58;;
71462;SDS011;59266;52.608;13.260;2023-04-19T10:13:38;8.65;;;2.50;;
71462;SDS011;59266;52.608;13.260;2023-04-19T10:16:05;6.90;;;2.63;;
71462;SDS011;59266;52.608;13.260;2023-04-19T10:18:44;8.90;;;2.55;;
71462;SDS011;59266;52.608;13.260;2023-04-19T10:21:11;6.30;;;2.40;;
71462;SDS011;59266;52.608;13.260;2023-04-19T10:23:39;6.45;;;2.70;;
71462;SDS011;59266;52.608;13.260;2023-04-19T10:26:05;7.95;;;2.40;;
71462;SDS011;59266;52.608;13.260;2023-04-19T10:28:34;8.60;;;2.83;;
71462;SDS011;59266;52.608;13.260;2023-04-19T10:31:10;7.65;;;2.53;;
71462;SDS011;59266;52.608;13.260;2023-04-19T10:33:43;7.70;;;2.30;;
71462;SDS011;59266;52.608;13.260;2023-04-19T10:36:13;6.25;;;2.20;;
71462;SDS011;59266;52.608;13.260;2023-04-19T10:38:44;8.32;;;2.53;;
71462;SDS011;59266;52.608;13.260;2023-04-19T10:41:17;8.75;;;2.60;;
71462;SDS011;59266;52.608;13.260;2023-04-19T10:43:46;7.65;;;2.33;;
71462;SDS011;59266;52.608;13.260;2023-04-19T10:46:15;7.15;;;2.17;;
71462;SDS011;59266;52.608;13.260;2023-04-19T10:49:02;15.25;;;3.22;;
71462;SDS011;59266;52.608;13.260;2023-04-19T10:51:38;5.82;;;2.10;;
71462;SDS011;59266;52.608;13.260;2023-04-19T10:54:09;8.52;;;2.40;;
71462;SDS011;59266;52.608;13.260;2023-04-19T10:56:56;6.70;;;2.53;;
71462;SDS011;59266;52.608;13.260;2023-04-19T10:59:25;6.38;;;2.15;;
71462;SDS011;59266;52.608;13.260;2023-04-19T11:02:00;6.22;;;2.20;;
71462;SDS011;59266;52.608;13.260;2023-04-19T11:07:15;7.28;;;2.35;;
71462;SDS011;59266;52.608;13.260;2023-04-19T11:09:47;6.82;;;2.50;;
71462;SDS011;59266;52.608;13.260;2023-04-19T11:12:18;6.70;;;2.20;;
71462;SDS011;59266;52.608;13.260;2023-04-19T11:17:31;7.55;;;2.40;;
71462;SDS011;59266;52.608;13.260;2023-04-19T11:20:01;7.30;;;2.40;;
71462;SDS011;59266;52.608;13.260;2023-04-19T11:22:35;7.05;;;2.35;;
71462;SDS011;59266;52.608;13.260;2023-04-19T11:25:16;7.75;;;2.05;;
71462;SDS011;59266;52.608;13.260;2023-04-19T11:31:31;7.28;;;2.28;;
71462;SDS011;59266;52.608;13.260;2023-04-19T11:38:11;12.40;;;2.50;;
71462;SDS011;59266;52.608;13.260;2023-04-19T11:41:22;10.27;;;2.55;;
71462;SDS011;59266;52.608;13.260;2023-04-19T11:43:51;7.38;;;2.25;;
71462;SDS011;59266;52.608;13.260;2023-04-19T11:46:18;7.75;;;2.55;;
71462;SDS011;59266;52.608;13.260;2023-04-19T11:48:51;7.75;;;2.33;;
71462;SDS011;59266;52.608;13.260;2023-04-19T11:51:19;7.97;;;2.50;;
71462;SDS011;59266;52.608;13.260;2023-04-19T11:53:47;8.48;;;2.67;;
71462;SDS011;59266;52.608;13.260;2023-04-19T11:56:14;8.45;;;2.35;;
71462;SDS011;59266;52.608;13.260;2023-04-19T11:58:42;6.38;;;2.35;;
71462;SDS011;59266;52.608;13.260;2023-04-19T12:01:11;7.60;;;2.42;;
71462;SDS011;59266;52.608;13.260;2023-04-19T12:03:53;8.15;;;2.28;;
71462;SDS011;59266;52.608;13.260;2023-04-19T12:09:09;7.32;;;2.50;;
71462;SDS011;59266;52.608;13.260;2023-04-19T12:11:42;6.82;;;2.47;;
71462;SDS011;59266;52.608;13.260;2023-04-19T12:14:11;9.10;;;2.55;;
71462;SDS011;59266;52.608;13.260;2023-04-19T12:16:39;8.35;;;2.30;;
71462;SDS011;59266;52.608;13.260;2023-04-19T12:19:09;9.43;;;2.55;;
71462;SDS011;59266;52.608;13.260;2023-04-19T12:24:11;7.15;;;2.42;;
71462;SDS011;59266;52.608;13.260;2023-04-19T12:26:52;9.45;;;3.08;;
71462;SDS011;59266;52.608;13.260;2023-04-19T12:29:21;8.80;;;2.38;;
71462;SDS011;59266;52.608;13.260;2023-04-19T12:31:48;10.05;;;2.97;;
71462;SDS011;59266;52.608;13.260;2023-04-19T12:34:15;9.80;;;3.17;;
71462;SDS011;59266;52.608;13.260;2023-04-19T12:36:42;7.28;;;2.97;;
71462;SDS011;59266;52.608;13.260;2023-04-19T12:39:13;9.80;;;2.90;;
71462;SDS011;59266;52.608;13.260;2023-04-19T12:41:43;10.38;;;2.80;;
71462;SDS011;59266;52.608;13.260;2023-04-19T12:44:10;9.60;;;2.60;;
71462;SDS011;59266;52.608;13.260;2023-04-19T12:46:39;16.80;;;2.60;;
71462;SDS011;59266;52.608;13.260;2023-04-19T12:49:06;9.68;;;3.05;;
71462;SDS011;59266;52.608;13.260;2023-04-19T12:51:48;9.52;;;2.83;;
71462;SDS011;59266;52.608;13.260;2023-04-19T12:54:19;8.77;;;2.67;;
71462;SDS011;59266;52.608;13.260;2023-04-19T12:57:08;9.10;;;2.90;;
71462;SDS011;59266;52.608;13.260;2023-04-19T12:59:34;9.77;;;3.15;;
71462;SDS011;59266;52.608;13.260;2023-04-19T13:02:00;8.57;;;2.80;;
71462;SDS011;59266;52.608;13.260;2023-04-19T13:04:37;8.35;;;2.67;;
71462;SDS011;59266;52.608;13.260;2023-04-19T13:07:03;7.35;;;3.08;;
71462;SDS011;59266;52.608;13.260;2023-04-19T13:09:30;8.82;;;2.60;;
71462;SDS011;59266;52.608;13.260;2023-04-19T13:11:57;7.88;;;3.10;;
71462;SDS011;59266;52.608;13.260;2023-04-19T13:14:26;8.55;;;2.80;;
71462;SDS011;59266;52.608;13.260;2023-04-19T13:16:53;8.40;;;2.80;;
71462;SDS011;59266;52.608;13.260;2023-04-19T13:19:20;7.47;;;2.60;;
71462;SDS011;59266;52.608;13.260;2023-04-19T13:21:51;7.95;;;2.90;;
71462;SDS011;59266;52.608;13.260;2023-04-19T13:24:19;7.38;;;2.92;;
71462;SDS011;59266;52.608;13.260;2023-04-19T13:27:01;7.50;;;2.63;;
71462;SDS011;59266;52.608;13.260;2023-04-19T13:29:34;8.48;;;2.97;;
71462;SDS011;59266;52.608;13.260;2023-04-19T13:32:23;10.00;;;2.80;;
71462;SDS011;59266;52.608;13.260;2023-04-19T13:34:55;8.25;;;2.83;;
71462;SDS011;59266;52.608;13.260;2023-04-19T13:37:21;9.30;;;3.00;;
71462;SDS011;59266;52.608;13.260;2023-04-19T13:39:48;7.00;;;2.70;;
71462;SDS011;59266;52.608;13.260;2023-04-19T13:42:14;8.85;;;3.00;;
71462;SDS011;59266;52.608;13.260;2023-04-19T13:44:41;8.55;;;2.92;;
71462;SDS011;59266;52.608;13.260;2023-04-19T13:47:08;8.63;;;3.17;;
71462;SDS011;59266;52.608;13.260;2023-04-19T13:49:34;6.90;;;2.60;;
71462;SDS011;59266;52.608;13.260;2023-04-19T13:52:01;10.57;;;3.40;;
71462;SDS011;59266;52.608;13.260;2023-04-19T13:54:27;7.10;;;2.65;;
71462;SDS011;59266;52.608;13.260;2023-04-19T13:56:54;9.43;;;2.80;;
71462;SDS011;59266;52.608;13.260;2023-04-19T13:59:21;7.00;;;2.60;;
71462;SDS011;59266;52.608;13.260;2023-04-19T14:01:51;8.40;;;3.03;;
71462;SDS011;59266;52.608;13.260;2023-04-19T14:04:23;11.90;;;3.47;;
71462;SDS011;59266;52.608;13.260;2023-04-19T14:06:51;10.60;;;3.53;;
71462;SDS011;59266;52.608;13.260;2023-04-19T14:09:18;7.68;;;2.80;;
71462;SDS011;59266;52.608;13.260;2023-04-19T14:11:44;7.03;;;2.80;;
71462;SDS011;59266;52.608;13.260;2023-04-19T14:14:13;8.43;;;3.10;;
71462;SDS011;59266;52.608;13.260;2023-04-19T14:16:39;11.43;;;3.22;;
71462;SDS011;59266;52.608;13.260;2023-04-19T14:19:07;9.68;;;3.03;;
71462;SDS011;59266;52.608;13.260;2023-04-19T14:21:34;9.40;;;3.40;;
71462;SDS011;59266;52.608;13.260;2023-04-19T14:24:01;7.90;;;3.03;;
71462;SDS011;59266;52.608;13.260;2023-04-19T14:26:32;10.75;;;3.38;;
71462;SDS011;59266;52.608;13.260;2023-04-19T14:29:04;10.23;;;3.20;;
71462;SDS011;59266;52.608;13.260;2023-04-19T14:31:31;7.18;;;3.05;;
71462;SDS011;59266;52.608;13.260;2023-04-19T14:33:59;12.40;;;4.03;;
71462;SDS011;59266;52.608;13.260;2023-04-19T14:36:26;12.00;;;3.00;;
71462;SDS011;59266;52.608;13.260;2023-04-19T14:38:53;9.32;;;3.63;;
71462;SDS011;59266;52.608;13.260;2023-04-19T14:41:19;9.07;;;3.60;;
71462;SDS011;59266;52.608;13.260;2023-04-19T14:43:46;8.98;;;3.80;;
71462;SDS011;59266;52.608;13.260;2023-04-19T14:46:13;8.85;;;3.38;;
71462;SDS011;59266;52.608;13.260;2023-04-19T14:48:40;11.40;;;3.80;;
71462;SDS011;59266;52.608;13.260;2023-04-19T14:51:07;10.95;;;3.65;;
71462;SDS011;59266;52.608;13.260;2023-04-19T14:53:35;11.00;;;3.80;;
71462;SDS011;59266;52.608;13.260;2023-04-19T14:56:03;10.75;;;3.58;;
71462;SDS011;59266;52.608;13.260;2023-04-19T14:58:30;10.23;;;3.63;;
71462;SDS011;59266;52.608;13.260;2023-04-19T15:00:57;11.25;;;3.65;;
71462;SDS011;59266;52.608;13.260;2023-04-19T15:03:27;15.43;;;4.30;;
71462;SDS011;59266;52.608;13.260;2023-04-19T15:05:54;13.65;;;3.38;;
71462;SDS011;59266;52.608;13.260;2023-04-19T15:08:20;8.50;;;3.55;;
71462;SDS011;59266;52.608;13.260;2023-04-19T15:10:55;9.35;;;3.60;;
71462;SDS011;59266;52.608;13.260;2023-04-19T15:13:22;15.82;;;3.85;;
71462;SDS011;59266;52.608;13.260;2023-04-19T15:15:49;11.05;;;4.13;;
71462;SDS011;59266;52.608;13.260;2023-04-19T15:18:16;11.88;;;4.05;;
71462;SDS011;59266;52.608;13.260;2023-04-19T15:20:44;12.07;;;4.45;;